createdAt,value
2017-03-11T00:00:30.976Z,2.5
2017-03-11T00:01:32.858Z,2.6
2017-03-11T00:02:35.571Z,2.6
2017-03-11T00:03:37.851Z,2.6
2017-03-11T00:04:39.764Z,2.6
2017-03-11T00:05:41.628Z,2.7
2017-03-11T00:06:43.943Z,2.7
2017-03-11T00:07:45.802Z,2.7
2017-03-11T00:08:48.099Z,2.7
2017-03-11T00:09:50.375Z,2.7
2017-03-11T00:10:52.677Z,2.7
2017-03-11T00:11:54.558Z,2.7
2017-03-11T00:12:56.430Z,2.7
2017-03-11T00:13:58.294Z,2.7
2017-03-11T00:15:00.597Z,2.7
2017-03-11T00:16:02.453Z,2.7
2017-03-11T00:17:04.760Z,2.7
2017-03-11T00:18:06.628Z,2.7
2017-03-11T00:19:08.908Z,2.8
2017-03-11T00:20:10.813Z,2.8
2017-03-11T00:21:12.699Z,2.8
2017-03-11T00:22:14.573Z,2.8
2017-03-11T00:23:16.889Z,2.8
2017-03-11T00:24:19.209Z,2.8
2017-03-11T00:25:21.120Z,2.8
2017-03-11T00:26:23.807Z,2.8
2017-03-11T00:27:26.106Z,2.8
2017-03-11T00:28:28.398Z,2.8
2017-03-11T00:29:30.690Z,2.9
2017-03-11T00:30:33.009Z,2.9
2017-03-11T00:31:35.696Z,2.8
2017-03-11T00:32:37.564Z,2.9
2017-03-11T00:33:39.442Z,2.9
2017-03-11T00:34:42.151Z,2.9
2017-03-11T00:35:44.461Z,2.9
2017-03-11T00:36:46.750Z,2.9
2017-03-11T00:37:48.605Z,2.9
2017-03-11T00:38:50.484Z,2.9
2017-03-11T00:39:52.362Z,2.9
2017-03-11T00:40:54.251Z,2.9
2017-03-11T00:41:56.558Z,2.9
2017-03-11T00:42:58.435Z,3
2017-03-11T00:44:00.301Z,2.9
2017-03-11T00:45:02.606Z,3
2017-03-11T00:46:05.306Z,3
2017-03-11T00:47:07.170Z,3
2017-03-11T00:48:09.040Z,3
2017-03-11T00:49:10.938Z,3
2017-03-11T00:50:13.238Z,3
2017-03-11T00:51:15.115Z,3
2017-03-11T00:52:16.980Z,3
2017-03-11T00:53:19.257Z,3
2017-03-11T00:54:21.142Z,3.1
2017-03-11T00:55:23.434Z,3.1
2017-03-11T00:56:25.307Z,3.1
2017-03-11T00:57:28.013Z,3.1
2017-03-11T00:58:29.865Z,3
2017-03-11T00:59:31.740Z,3.1
2017-03-11T01:00:34.045Z,3.1
2017-03-11T01:01:35.920Z,3
2017-03-11T01:02:38.209Z,3
2017-03-11T01:03:40.082Z,3.1
2017-03-11T01:04:41.984Z,3.1
2017-03-11T01:05:43.837Z,3.1
2017-03-11T01:06:45.698Z,3.1
2017-03-11T01:07:47.978Z,3.1
2017-03-11T01:08:49.856Z,3
2017-03-11T01:09:52.153Z,3.1
2017-03-11T01:10:54.032Z,3
2017-03-11T01:11:56.312Z,3.1
2017-03-11T01:12:58.197Z,3.1
2017-03-11T01:14:00.033Z,3.1
2017-03-11T01:15:02.330Z,3.1
2017-03-11T01:16:04.186Z,3.1
2017-03-11T01:17:06.063Z,3.1
2017-03-11T01:18:07.942Z,3
2017-03-11T01:19:09.794Z,3
2017-03-11T01:20:11.673Z,3
2017-03-11T01:21:13.961Z,3.1
2017-03-11T01:22:15.820Z,3
2017-03-11T01:23:17.684Z,3
2017-03-11T01:24:19.562Z,3
2017-03-11T01:25:21.440Z,3
2017-03-11T01:26:23.306Z,3
2017-03-11T01:27:25.152Z,3
2017-03-11T01:28:27.009Z,3
2017-03-11T01:29:28.901Z,3
2017-03-11T01:30:30.781Z,3
2017-03-11T01:31:32.644Z,3
2017-03-11T01:32:34.957Z,3
2017-03-11T01:33:37.281Z,3
2017-03-11T01:34:39.148Z,3
2017-03-11T01:35:41.459Z,3
2017-03-11T01:36:44.176Z,3
2017-03-11T01:37:46.055Z,3
2017-03-11T01:38:48.325Z,3
2017-03-11T01:39:50.207Z,3
2017-03-11T01:40:52.478Z,3
2017-03-11T01:41:54.375Z,3
2017-03-11T01:42:56.646Z,3
2017-03-11T01:43:58.957Z,3
2017-03-11T01:45:00.830Z,3
2017-03-11T01:46:03.116Z,3
2017-03-11T01:47:04.985Z,3
2017-03-11T01:48:06.843Z,3
2017-03-11T01:49:09.128Z,3.1
2017-03-11T01:50:11.018Z,3.1
2017-03-11T01:51:12.901Z,3.1
2017-03-11T01:52:14.778Z,3
2017-03-11T01:53:17.074Z,3
2017-03-11T01:54:18.968Z,3
2017-03-11T01:55:20.828Z,3
2017-03-11T01:56:22.699Z,3
2017-03-11T01:57:24.569Z,3.1
2017-03-11T01:58:26.436Z,3.1
2017-03-11T01:59:28.323Z,3.1
2017-03-11T02:00:30.174Z,3.1
2017-03-11T02:01:32.053Z,3.1
2017-03-11T02:02:33.938Z,3.1
2017-03-11T02:03:35.815Z,3.1
2017-03-11T02:04:37.682Z,3.1
2017-03-11T02:05:39.581Z,3.1
2017-03-11T02:06:41.865Z,3.1
2017-03-11T02:07:44.139Z,3.1
2017-03-11T02:08:46.006Z,3.1
2017-03-11T02:09:47.871Z,3.1
2017-03-11T02:10:49.738Z,3.1
2017-03-11T02:11:52.017Z,3.1
2017-03-11T02:12:53.887Z,3.1
2017-03-11T02:13:55.742Z,3.1
2017-03-11T02:14:57.646Z,3.1
2017-03-11T02:15:59.499Z,3.1
2017-03-11T02:17:01.380Z,3.1
2017-03-11T02:18:03.242Z,3.1
2017-03-11T02:19:05.140Z,3.1
2017-03-11T02:20:07.022Z,3.1
2017-03-11T02:21:09.300Z,3.1
2017-03-11T02:22:11.190Z,3.1
2017-03-11T02:23:13.056Z,3.1
2017-03-11T02:24:14.924Z,3.1
2017-03-11T02:25:17.625Z,3.1
2017-03-11T02:26:19.494Z,3.1
2017-03-11T02:27:21.809Z,3.2
2017-03-11T02:28:23.670Z,3.2
2017-03-11T02:29:26.378Z,3.2
2017-03-11T02:30:29.513Z,3.2
2017-03-11T02:31:31.803Z,3.2
2017-03-11T02:32:34.088Z,3.2
2017-03-11T02:33:35.979Z,3.1
2017-03-11T02:34:38.712Z,3.1
2017-03-11T02:35:41.001Z,3.1
2017-03-11T02:36:42.880Z,3.2
2017-03-11T02:37:44.745Z,3.2
2017-03-11T02:38:46.622Z,3.2
2017-03-11T02:39:48.485Z,3.2
2017-03-11T02:40:50.369Z,3.2
2017-03-11T02:41:52.649Z,3.2
2017-03-11T02:42:54.527Z,3.2
2017-03-11T02:43:56.384Z,3.2
2017-03-11T02:44:58.271Z,3.2
2017-03-11T02:46:00.154Z,3.2
2017-03-11T02:47:02.459Z,3.2
2017-03-11T02:48:04.747Z,3.2
2017-03-11T02:49:07.456Z,3.2
2017-03-11T02:50:09.326Z,3.2
2017-03-11T02:51:11.184Z,3.2
2017-03-11T02:52:13.066Z,3.2
2017-03-11T02:53:15.783Z,3.2
2017-03-11T02:54:17.684Z,3.2
2017-03-11T02:55:19.937Z,3.1
2017-03-11T02:56:21.813Z,3.1
2017-03-11T02:57:23.675Z,3.1
2017-03-11T02:58:25.968Z,3.1
2017-03-11T02:59:28.282Z,3.1
2017-03-11T03:00:30.152Z,3.2
2017-03-11T03:01:32.027Z,3.1
2017-03-11T03:02:34.326Z,3.1
2017-03-11T03:03:36.180Z,3
2017-03-11T03:04:38.484Z,3
2017-03-11T03:05:40.775Z,3
2017-03-11T03:06:42.666Z,3
2017-03-11T03:07:44.519Z,3.1
2017-03-11T03:08:46.382Z,3
2017-03-11T03:09:48.264Z,3.1
2017-03-11T03:10:50.144Z,3.2
2017-03-11T03:11:52.420Z,3.2
2017-03-11T03:12:55.124Z,3.2
2017-03-11T03:13:57.418Z,3.1
2017-03-11T03:14:59.308Z,3.1
2017-03-11T03:16:01.193Z,3.1
2017-03-11T03:17:03.454Z,3.1
2017-03-11T03:18:05.311Z,3.1
2017-03-11T03:19:07.612Z,3.1
2017-03-11T03:20:09.942Z,3.1
2017-03-11T03:21:11.804Z,3.1
2017-03-11T03:22:13.692Z,3.1
2017-03-11T03:23:15.552Z,3.1
2017-03-11T03:24:17.446Z,3.1
2017-03-11T03:25:19.738Z,3.1
2017-03-11T03:26:21.633Z,3.1
2017-03-11T03:27:23.936Z,3.1
2017-03-11T03:28:25.813Z,3.1
2017-03-11T03:29:27.690Z,3.1
2017-03-11T03:30:29.566Z,3.1
2017-03-11T03:31:31.857Z,3.1
2017-03-11T03:32:33.728Z,3.1
2017-03-11T03:33:35.602Z,3.1
2017-03-11T03:34:37.467Z,3.1
2017-03-11T03:35:39.324Z,3.1
2017-03-11T03:36:41.625Z,3.1
2017-03-11T03:37:43.515Z,3.1
2017-03-11T03:38:45.373Z,3.1
2017-03-11T03:39:47.651Z,3.1
2017-03-11T03:40:49.527Z,3.2
2017-03-11T03:41:51.404Z,3.1
2017-03-11T03:42:53.269Z,3.1
2017-03-11T03:43:55.569Z,3.2
2017-03-11T03:44:57.529Z,3.2
2017-03-11T03:45:59.413Z,3.2
2017-03-11T03:47:01.297Z,3.2
2017-03-11T03:48:03.170Z,3.2
2017-03-11T03:49:05.445Z,3.2
2017-03-11T03:50:07.741Z,3.2
2017-03-11T03:51:09.633Z,3.1
2017-03-11T03:52:11.521Z,3.2
2017-03-11T03:53:13.391Z,3.2
2017-03-11T03:54:15.281Z,3.2
2017-03-11T03:55:17.137Z,3.2
2017-03-11T03:56:18.981Z,3.2
2017-03-11T03:57:21.274Z,3.1
2017-03-11T03:58:23.164Z,3.1
2017-03-11T03:59:25.045Z,3.1
2017-03-11T04:00:26.915Z,3.1
2017-03-11T04:01:28.778Z,3.1
2017-03-11T04:02:30.652Z,3.1
2017-03-11T04:03:32.552Z,3.1
2017-03-11T04:04:34.419Z,3.1
2017-03-11T04:05:36.304Z,3.1
2017-03-11T04:06:38.206Z,3.1
2017-03-11T04:07:40.084Z,3.1
2017-03-11T04:08:41.953Z,3.2
2017-03-11T04:09:43.816Z,3.1
2017-03-11T04:10:45.666Z,3.1
2017-03-11T04:11:47.984Z,3.1
2017-03-11T04:12:49.862Z,3.2
2017-03-11T04:13:51.745Z,3.1
2017-03-11T04:14:53.601Z,3.1
2017-03-11T04:15:55.466Z,3.1
2017-03-11T04:16:57.329Z,3
2017-03-11T04:17:59.641Z,3
2017-03-11T04:19:01.932Z,3.1
2017-03-11T04:20:04.218Z,3.1
2017-03-11T04:21:06.106Z,3.2
2017-03-11T04:22:08.388Z,3.1
2017-03-11T04:23:10.692Z,3.1
2017-03-11T04:24:12.967Z,3.1
2017-03-11T04:25:15.272Z,3.1
2017-03-11T04:26:17.153Z,3.1
2017-03-11T04:27:19.029Z,3.1
2017-03-11T04:28:20.923Z,3.1
2017-03-11T04:29:22.804Z,3.1
2017-03-11T04:30:25.074Z,3.1
2017-03-11T04:31:27.382Z,3.1
2017-03-11T04:32:29.239Z,3.1
2017-03-11T04:33:31.126Z,3.1
2017-03-11T04:34:32.958Z,3.1
2017-03-11T04:35:34.844Z,3.1
2017-03-11T04:36:36.710Z,3.2
2017-03-11T04:37:38.587Z,3.1
2017-03-11T04:38:40.444Z,3.1
2017-03-11T04:39:42.323Z,3
2017-03-11T04:40:45.018Z,3
2017-03-11T04:41:46.881Z,3.1
2017-03-11T04:42:48.755Z,3.1
2017-03-11T04:43:51.469Z,3.1
2017-03-11T04:44:53.344Z,3.1
2017-03-11T04:45:55.652Z,3.1
2017-03-11T04:46:57.952Z,3.1
2017-03-11T04:47:59.823Z,3.1
2017-03-11T04:49:01.714Z,3.1
2017-03-11T04:50:04.009Z,3.1
2017-03-11T04:51:05.916Z,3.1
2017-03-11T04:52:08.198Z,3.1
2017-03-11T04:53:10.079Z,3.2
2017-03-11T04:54:11.947Z,3.1
2017-03-11T04:55:13.826Z,3.1
2017-03-11T04:56:16.123Z,3.1
2017-03-11T04:57:18.019Z,3.1
2017-03-11T04:58:21.153Z,3
2017-03-11T04:59:23.032Z,3.1
2017-03-11T05:00:24.909Z,3.1
2017-03-11T05:01:27.177Z,3.1
2017-03-11T05:02:29.051Z,3
2017-03-11T05:03:31.339Z,3
2017-03-11T05:04:33.242Z,3
2017-03-11T05:05:35.562Z,3.1
2017-03-11T05:06:37.441Z,3.1
2017-03-11T05:07:39.300Z,3.1
2017-03-11T05:08:41.195Z,3.1
2017-03-11T05:09:43.485Z,3.1
2017-03-11T05:10:45.771Z,3.1
2017-03-11T05:11:48.482Z,3.2
2017-03-11T05:12:50.774Z,3.1
2017-03-11T05:13:52.637Z,3
2017-03-11T05:14:54.506Z,3.1
2017-03-11T05:15:56.800Z,3.1
2017-03-11T05:16:59.093Z,3.1
2017-03-11T05:18:00.952Z,3.1
2017-03-11T05:19:02.840Z,3.1
2017-03-11T05:20:04.714Z,3.1
2017-03-11T05:21:06.575Z,3.1
2017-03-11T05:22:08.475Z,3.1
2017-03-11T05:23:10.340Z,3.2
2017-03-11T05:24:12.187Z,3.2
2017-03-11T05:25:14.048Z,3.2
2017-03-11T05:26:16.377Z,3.1
2017-03-11T05:27:18.227Z,3.2
2017-03-11T05:28:20.082Z,3.1
2017-03-11T05:29:22.360Z,3.1
2017-03-11T05:30:24.653Z,3.1
2017-03-11T05:31:26.955Z,3.1
2017-03-11T05:32:29.231Z,3.1
2017-03-11T05:33:31.106Z,3.1
2017-03-11T05:34:32.973Z,3.1
2017-03-11T05:35:34.837Z,3.1
2017-03-11T05:36:36.709Z,3.2
2017-03-11T05:37:38.976Z,3.2
2017-03-11T05:38:41.287Z,3.1
2017-03-11T05:39:43.146Z,3.1
2017-03-11T05:40:45.042Z,3.1
2017-03-11T05:41:46.920Z,3.1
2017-03-11T05:42:48.826Z,3.1
2017-03-11T05:43:50.713Z,3.1
2017-03-11T05:44:52.584Z,3.1
2017-03-11T05:45:54.444Z,3.1
2017-03-11T05:46:56.327Z,3.1
2017-03-11T05:47:58.203Z,3.1
2017-03-11T05:49:00.483Z,3.2
2017-03-11T05:50:02.789Z,3.2
2017-03-11T05:51:05.117Z,3.2
2017-03-11T05:52:06.986Z,3.2
2017-03-11T05:53:09.304Z,3.2
2017-03-11T05:54:11.603Z,3.2
2017-03-11T05:55:13.910Z,3.2
2017-03-11T05:56:15.778Z,3.2
2017-03-11T05:57:17.635Z,3.2
2017-03-11T05:58:19.538Z,3.2
2017-03-11T05:59:21.869Z,3.2
2017-03-11T06:00:24.412Z,3.2
2017-03-11T06:01:26.375Z,3.2
2017-03-11T06:02:28.246Z,3.3
2017-03-11T06:03:57.546Z,3.2
2017-03-11T06:04:59.813Z,3.3
2017-03-11T06:06:01.775Z,3.2
2017-03-11T06:07:03.736Z,3.2
2017-03-11T06:08:06.166Z,3.1
2017-03-11T06:09:08.151Z,3.2
2017-03-11T06:10:10.143Z,3.2
2017-03-11T06:11:12.173Z,3.2
2017-03-11T06:12:14.089Z,3.3
2017-03-11T06:13:16.406Z,3.3
2017-03-11T06:14:18.280Z,3.3
2017-03-11T06:15:20.585Z,3.3
2017-03-11T06:16:22.483Z,3.3
2017-03-11T06:17:24.347Z,3.3
2017-03-11T06:18:26.217Z,3.3
2017-03-11T06:19:28.094Z,3.3
2017-03-11T06:20:29.993Z,3.4
2017-03-11T06:21:31.855Z,3.3
2017-03-11T06:22:33.730Z,3.3
2017-03-11T06:23:36.033Z,3.3
2017-03-11T06:24:37.939Z,3.3
2017-03-11T06:25:40.306Z,3.3
2017-03-11T06:26:42.157Z,3.3
2017-03-11T06:27:44.024Z,3.3
2017-03-11T06:28:45.985Z,3.2
2017-03-11T06:29:47.944Z,3.2
2017-03-11T06:30:50.328Z,3.2
2017-03-11T06:31:52.326Z,3.3
2017-03-11T06:32:54.287Z,3.4
2017-03-11T06:33:56.775Z,3.4
2017-03-11T06:34:59.177Z,3.4
2017-03-11T06:36:01.052Z,3.4
2017-03-11T06:37:02.947Z,3.4
2017-03-11T06:38:04.829Z,3.4
2017-03-11T06:39:06.701Z,3.4
2017-03-11T06:40:08.595Z,3.5
2017-03-11T06:41:10.923Z,3.5
2017-03-11T06:42:12.810Z,3.5
2017-03-11T06:43:14.694Z,3.4
2017-03-11T06:44:16.574Z,3.4
2017-03-11T06:45:18.491Z,3.4
2017-03-11T06:46:20.350Z,3.3
2017-03-11T06:47:22.681Z,3.3
2017-03-11T06:48:24.955Z,3.4
2017-03-11T06:49:27.260Z,3.4
2017-03-11T06:50:29.997Z,3.3
2017-03-11T06:51:31.867Z,3.3
2017-03-11T06:52:33.741Z,3.3
2017-03-11T06:53:35.614Z,3.4
2017-03-11T06:54:37.891Z,3.5
2017-03-11T06:55:39.793Z,3.4
2017-03-11T06:56:42.512Z,3.4
2017-03-11T06:57:44.373Z,3.4
2017-03-11T06:58:46.247Z,3.4
2017-03-11T06:59:48.642Z,3.4
2017-03-11T07:00:50.566Z,3.3
2017-03-11T07:01:52.550Z,3.3
2017-03-11T07:02:55.038Z,3.3
2017-03-11T07:03:57.487Z,3.3
2017-03-11T07:04:59.985Z,3.4
2017-03-11T07:06:02.007Z,3.4
2017-03-11T07:07:04.458Z,3.3
2017-03-11T07:08:06.875Z,3.4
2017-03-11T07:09:08.936Z,3.7
2017-03-11T07:10:10.921Z,3.6
2017-03-11T07:11:12.862Z,3.6
2017-03-11T07:12:14.760Z,3.7
2017-03-11T07:13:16.649Z,3.7
2017-03-11T07:14:18.564Z,3.6
2017-03-11T07:15:20.659Z,3.5
2017-03-11T07:16:22.669Z,3.5
2017-03-11T07:17:24.540Z,3.5
2017-03-11T07:18:26.557Z,3.5
2017-03-11T07:19:28.502Z,3.5
2017-03-11T07:20:30.610Z,3.5
2017-03-11T07:21:32.920Z,3.5
2017-03-11T07:22:34.814Z,3.5
2017-03-11T07:23:37.550Z,3.5
2017-03-11T07:24:39.458Z,3.6
2017-03-11T07:25:41.714Z,3.6
2017-03-11T07:26:43.641Z,3.6
2017-03-11T07:27:45.521Z,3.5
2017-03-11T07:28:47.931Z,3.5
2017-03-11T07:29:49.845Z,3.5
2017-03-11T07:30:52.160Z,3.5
2017-03-11T07:31:54.043Z,3.6
2017-03-11T07:32:56.395Z,3.6
2017-03-11T07:33:58.345Z,3.6
2017-03-11T07:35:00.664Z,3.7
2017-03-11T07:36:02.567Z,3.6
2017-03-11T07:37:04.670Z,3.5
2017-03-11T07:38:06.778Z,3.6
2017-03-11T07:39:08.727Z,3.6
2017-03-11T07:40:11.076Z,3.6
2017-03-11T07:41:13.089Z,3.7
2017-03-11T07:42:14.967Z,3.7
2017-03-11T07:43:16.857Z,3.7
2017-03-11T07:44:18.735Z,3.8
2017-03-11T07:45:20.665Z,3.8
2017-03-11T07:46:22.599Z,3.9
2017-03-11T07:47:24.796Z,3.9
2017-03-11T07:48:26.671Z,3.9
2017-03-11T07:49:28.644Z,3.8
2017-03-11T07:50:30.561Z,3.8
2017-03-11T07:51:33.311Z,3.9
2017-03-11T07:52:35.198Z,3.8
2017-03-11T07:53:37.119Z,3.7
2017-03-11T07:54:39.032Z,3.7
2017-03-11T07:55:40.922Z,3.5
2017-03-11T07:56:42.819Z,3.7
2017-03-11T07:57:44.973Z,3.7
2017-03-11T07:58:47.749Z,3.7
2017-03-11T07:59:49.665Z,3.7
2017-03-11T08:00:51.987Z,3.7
2017-03-11T08:01:54.347Z,3.7
2017-03-11T08:02:57.093Z,3.9
2017-03-11T08:03:59.385Z,4
2017-03-11T08:05:01.314Z,4
2017-03-11T08:06:03.648Z,4
2017-03-11T08:07:05.601Z,4
2017-03-11T08:08:07.505Z,4.1
2017-03-11T08:09:09.439Z,4.1
2017-03-11T08:10:11.456Z,4.1
2017-03-11T08:11:13.422Z,4.1
2017-03-11T08:12:15.333Z,4
2017-03-11T08:13:17.685Z,4.1
2017-03-11T08:14:19.571Z,4.1
2017-03-11T08:15:21.742Z,4.1
2017-03-11T08:16:23.628Z,4.2
2017-03-11T08:17:25.487Z,4.1
2017-03-11T08:18:27.373Z,4.1
2017-03-11T08:19:29.288Z,4
2017-03-11T08:20:32.321Z,3.9
2017-03-11T08:21:34.188Z,4
2017-03-11T08:22:36.115Z,4
2017-03-11T08:23:38.932Z,3.9
2017-03-11T08:24:40.862Z,3.9
2017-03-11T08:25:42.763Z,3.9
2017-03-11T08:26:45.091Z,4.1
2017-03-11T08:27:47.037Z,4.1
2017-03-11T08:28:50.216Z,4.3
2017-03-11T08:29:52.534Z,4.3
2017-03-11T08:30:54.443Z,4.2
2017-03-11T08:31:56.360Z,4.3
2017-03-11T08:32:58.685Z,4.3
2017-03-11T08:34:00.985Z,4.4
2017-03-11T08:35:03.472Z,4.4
2017-03-11T08:36:05.415Z,4.3
2017-03-11T08:37:07.746Z,4.2
2017-03-11T08:38:09.649Z,4.3
2017-03-11T08:39:12.401Z,4.1
2017-03-11T08:40:14.334Z,4.5
2017-03-11T08:41:16.247Z,4.5
2017-03-11T08:42:18.663Z,4.4
2017-03-11T08:43:20.599Z,4.3
2017-03-11T08:44:22.495Z,4.2
2017-03-11T08:45:24.362Z,4.2
2017-03-11T08:46:26.504Z,4.3
2017-03-11T08:47:28.369Z,4.2
2017-03-11T08:48:30.708Z,4.3
2017-03-11T08:49:32.578Z,4.2
2017-03-11T08:50:34.485Z,4.2
2017-03-11T08:51:36.346Z,4.3
2017-03-11T08:52:38.248Z,4.2
2017-03-11T08:53:40.129Z,4.2
2017-03-11T08:54:42.438Z,4.2
2017-03-11T08:55:44.736Z,4.2
2017-03-11T08:56:47.073Z,4.2
2017-03-11T08:57:49.866Z,4.1
2017-03-11T08:58:51.818Z,4.1
2017-03-11T08:59:53.679Z,4.1
2017-03-11T09:00:55.613Z,4.2
2017-03-11T09:01:57.522Z,4.2
2017-03-11T09:02:59.838Z,4.2
2017-03-11T09:04:01.746Z,4.3
2017-03-11T09:05:03.643Z,4.4
2017-03-11T09:06:05.554Z,4.4
2017-03-11T09:07:07.467Z,4.2
2017-03-11T09:08:09.366Z,4.1
2017-03-11T09:09:11.237Z,4.2
2017-03-11T09:10:13.558Z,4.3
2017-03-11T09:11:15.870Z,4.4
2017-03-11T09:12:17.788Z,4.3
2017-03-11T09:13:19.684Z,4.5
2017-03-11T09:14:21.571Z,4.5
2017-03-11T09:15:23.484Z,4.5
2017-03-11T09:16:25.820Z,4.5
2017-03-11T09:17:28.148Z,4.6
2017-03-11T09:18:30.049Z,4.6
2017-03-11T09:19:32.375Z,4.6
2017-03-11T09:20:34.690Z,4.5
2017-03-11T09:21:36.560Z,4.4
2017-03-11T09:22:38.450Z,4.5
2017-03-11T09:23:40.342Z,4.6
2017-03-11T09:24:42.640Z,4.6
2017-03-11T09:25:44.963Z,4.7
2017-03-11T09:26:46.847Z,4.7
2017-03-11T09:27:49.143Z,4.6
2017-03-11T09:28:51.064Z,4.6
2017-03-11T09:29:52.940Z,4.7
2017-03-11T09:30:55.331Z,4.6
2017-03-11T09:31:57.648Z,4.6
2017-03-11T09:32:59.537Z,5.1
2017-03-11T09:34:01.425Z,5.1
2017-03-11T09:35:04.155Z,4.8
2017-03-11T09:36:06.024Z,4.7
2017-03-11T09:37:07.893Z,4.8
2017-03-11T09:38:10.237Z,4.8
2017-03-11T09:39:12.133Z,4.9
2017-03-11T09:40:13.995Z,4.9
2017-03-11T09:41:15.865Z,4.9
2017-03-11T09:42:17.725Z,4.8
2017-03-11T09:43:19.605Z,4.7
2017-03-11T09:44:21.501Z,4.7
2017-03-11T09:45:23.421Z,4.7
2017-03-11T09:46:25.307Z,4.8
2017-03-11T09:47:27.185Z,4.8
2017-03-11T09:48:29.474Z,4.9
2017-03-11T09:49:32.239Z,5
2017-03-11T09:50:34.106Z,5
2017-03-11T09:51:36.398Z,5.1
2017-03-11T09:52:38.701Z,5.1
2017-03-11T09:53:41.025Z,5.1
2017-03-11T09:54:43.342Z,5.1
2017-03-11T09:55:45.217Z,5.2
2017-03-11T09:56:47.112Z,5.2
2017-03-11T09:57:49.412Z,5.3
2017-03-11T09:58:51.314Z,5.2
2017-03-11T09:59:53.195Z,5.1
2017-03-11T10:00:55.512Z,5.1
2017-03-11T10:01:58.246Z,5.1
2017-03-11T10:03:00.188Z,5.3
2017-03-11T10:04:02.502Z,5.3
2017-03-11T10:05:04.832Z,5.4
2017-03-11T10:06:06.719Z,5.4
2017-03-11T10:07:08.586Z,5.4
2017-03-11T10:08:10.465Z,5.4
2017-03-11T10:09:12.357Z,5.5
2017-03-11T10:10:14.247Z,5.6
2017-03-11T10:11:16.128Z,5.4
2017-03-11T10:12:18.088Z,5.4
2017-03-11T10:13:19.988Z,5.6
2017-03-11T10:14:21.878Z,5.6
2017-03-11T10:15:23.743Z,5.5
2017-03-11T10:16:26.041Z,5.4
2017-03-11T10:17:27.915Z,5.4
2017-03-11T10:18:29.818Z,5.2
2017-03-11T10:19:31.718Z,5.3
2017-03-11T10:20:34.440Z,5.4
2017-03-11T10:21:36.770Z,5.1
2017-03-11T10:22:38.645Z,5.3
2017-03-11T10:23:40.530Z,5.6
2017-03-11T10:24:42.389Z,5.6
2017-03-11T10:25:44.283Z,5.8
2017-03-11T10:26:46.193Z,5.9
2017-03-11T10:27:48.077Z,5.9
2017-03-11T10:28:50.409Z,6.1
2017-03-11T10:29:52.294Z,6.1
2017-03-11T10:30:54.191Z,6
2017-03-11T10:31:56.499Z,6.1
2017-03-11T10:32:58.374Z,6.2
2017-03-11T10:34:00.250Z,6.3
2017-03-11T10:35:02.553Z,6.3
2017-03-11T10:36:04.463Z,6.5
2017-03-11T10:37:06.350Z,6.5
2017-03-11T10:38:08.664Z,6.5
2017-03-11T10:39:10.530Z,6.6
2017-03-11T10:40:12.423Z,6.7
2017-03-11T10:41:14.287Z,6.9
2017-03-11T10:42:16.616Z,6.7
2017-03-11T10:43:18.516Z,6.8
2017-03-11T10:44:20.443Z,6.7
2017-03-11T10:45:22.335Z,6.7
2017-03-11T10:46:24.271Z,6.7
2017-03-11T10:47:26.132Z,6.3
2017-03-11T10:48:28.011Z,6.3
2017-03-11T10:49:30.751Z,6.4
2017-03-11T10:50:33.043Z,6.5
2017-03-11T10:51:34.920Z,6.8
2017-03-11T10:52:36.796Z,6.8
2017-03-11T10:53:39.531Z,7.1
2017-03-11T10:54:41.407Z,6.9
2017-03-11T10:55:43.296Z,6.9
2017-03-11T10:56:46.013Z,7
2017-03-11T10:57:48.333Z,6.9
2017-03-11T10:58:50.210Z,7
2017-03-11T10:59:52.088Z,7
2017-03-11T11:00:54.406Z,7
2017-03-11T11:01:56.719Z,7.1
2017-03-11T11:02:58.643Z,7.2
2017-03-11T11:04:00.932Z,7
2017-03-11T11:05:02.841Z,7.3
2017-03-11T11:06:04.736Z,7.3
2017-03-11T11:07:06.604Z,7.1
2017-03-11T11:08:08.901Z,7
2017-03-11T11:09:11.217Z,7.2
2017-03-11T11:10:13.936Z,6.7
2017-03-11T11:11:15.806Z,6.7
2017-03-11T11:12:17.665Z,6.7
2017-03-11T11:13:19.967Z,6.7
2017-03-11T11:14:21.882Z,6.9
2017-03-11T11:15:23.780Z,7.1
2017-03-11T11:16:25.655Z,6.9
2017-03-11T11:17:27.572Z,6.9
2017-03-11T11:18:29.461Z,7.5
2017-03-11T11:19:31.332Z,7.7
2017-03-11T11:20:33.189Z,8
2017-03-11T11:21:35.057Z,7.7
2017-03-11T11:22:36.949Z,7.6
2017-03-11T11:23:38.858Z,7.6
2017-03-11T11:24:40.753Z,7.3
2017-03-11T11:25:43.065Z,8
2017-03-11T11:26:45.376Z,8
2017-03-11T11:27:47.279Z,8
2017-03-11T11:28:49.588Z,8.2
2017-03-11T11:29:51.911Z,8.8
2017-03-11T11:30:53.809Z,9.2
2017-03-11T11:31:55.722Z,8.6
2017-03-11T11:32:57.589Z,8.3
2017-03-11T11:33:59.472Z,8.1
2017-03-11T11:35:01.361Z,8.1
2017-03-11T11:36:03.749Z,8.1
2017-03-11T11:37:05.647Z,8.3
2017-03-11T11:38:07.504Z,8.2
2017-03-11T11:39:09.408Z,8.2
2017-03-11T11:40:11.303Z,8.3
2017-03-11T11:41:13.169Z,8.5
2017-03-11T11:42:15.504Z,8.5
2017-03-11T11:43:17.381Z,8.8
2017-03-11T11:44:19.700Z,8.8
2017-03-11T11:45:21.580Z,9
2017-03-11T11:46:23.455Z,9.7
2017-03-11T11:47:25.818Z,9.4
2017-03-11T11:48:27.706Z,9.2
2017-03-11T11:49:30.004Z,8.8
2017-03-11T11:50:31.910Z,8.1
2017-03-11T11:51:33.778Z,8.2
2017-03-11T11:52:36.088Z,8.2
2017-03-11T11:53:37.981Z,8.1
2017-03-11T11:54:39.868Z,8
2017-03-11T11:55:41.770Z,8.2
2017-03-11T11:56:43.650Z,8.2
2017-03-11T11:57:45.531Z,8.5
2017-03-11T11:58:47.825Z,8.5
2017-03-11T11:59:49.705Z,8.5
2017-03-11T12:00:51.610Z,8.4
2017-03-11T12:01:53.915Z,8.6
2017-03-11T12:02:55.800Z,8.6
2017-03-11T12:03:57.681Z,8.8
2017-03-11T12:04:59.562Z,8.9
2017-03-11T12:06:01.904Z,9
2017-03-11T12:07:04.202Z,9
2017-03-11T12:08:06.115Z,9
2017-03-11T12:09:08.014Z,8.8
2017-03-11T12:10:09.921Z,8.9
2017-03-11T12:11:11.801Z,9.7
2017-03-11T12:12:14.088Z,9.8
2017-03-11T12:13:15.988Z,9.8
2017-03-11T12:14:17.880Z,10.2
2017-03-11T12:15:20.182Z,10.2
2017-03-11T12:16:22.089Z,10.5
2017-03-11T12:17:23.965Z,11.1
2017-03-11T12:18:25.868Z,10.8
2017-03-11T12:19:27.748Z,10.2
2017-03-11T12:20:29.628Z,10.7
2017-03-11T12:21:31.513Z,11.3
2017-03-11T12:22:33.401Z,11.3
2017-03-11T12:23:35.313Z,11.2
2017-03-11T12:24:38.064Z,11.1
2017-03-11T12:25:39.994Z,12
2017-03-11T12:26:41.870Z,11.5
2017-03-11T12:27:44.201Z,10.9
2017-03-11T12:28:46.093Z,11
2017-03-11T12:29:48.413Z,11
2017-03-11T12:30:51.154Z,10.8
2017-03-11T12:31:53.889Z,11.6
2017-03-11T12:32:55.775Z,11.4
2017-03-11T12:33:57.679Z,11.1
2017-03-11T12:34:59.532Z,12
2017-03-11T12:36:01.440Z,11.7
2017-03-11T12:37:03.336Z,10.9
2017-03-11T12:38:05.230Z,10.5
2017-03-11T12:39:07.132Z,10
2017-03-11T12:40:09.481Z,10.1
2017-03-11T12:41:11.360Z,10.3
2017-03-11T12:42:13.257Z,10.3
2017-03-11T12:43:15.190Z,10.6
2017-03-11T12:44:17.074Z,11.1
2017-03-11T12:45:19.388Z,11
2017-03-11T12:46:21.724Z,10.6
2017-03-11T12:47:23.595Z,10.3
2017-03-11T12:48:25.477Z,10.3
2017-03-11T12:49:27.361Z,10.6
2017-03-11T12:50:29.258Z,10.7
2017-03-11T12:51:31.996Z,10.4
2017-03-11T12:52:33.918Z,10.3
2017-03-11T12:53:36.237Z,10.6
2017-03-11T12:54:38.562Z,11
2017-03-11T12:55:40.490Z,11.1
2017-03-11T12:56:42.360Z,10.5
2017-03-11T12:57:44.676Z,10.8
2017-03-11T12:58:46.569Z,11.1
2017-03-11T12:59:48.897Z,10.9
2017-03-11T13:00:51.195Z,10.3
2017-03-11T13:01:53.516Z,10.5
2017-03-11T13:02:55.841Z,10.8
2017-03-11T13:03:57.718Z,10.4
2017-03-11T13:05:00.030Z,10.7
2017-03-11T13:06:01.928Z,11.1
2017-03-11T13:07:03.843Z,11
2017-03-11T13:08:05.720Z,10.4
2017-03-11T13:09:07.606Z,11
2017-03-11T13:10:09.512Z,11.3
2017-03-11T13:11:11.394Z,11.2
2017-03-11T13:12:13.291Z,10.2
2017-03-11T13:13:15.166Z,10.3
2017-03-11T13:14:17.064Z,10.8
2017-03-11T13:15:18.955Z,10.9
2017-03-11T13:16:20.853Z,10.8
2017-03-11T13:17:23.183Z,10.6
2017-03-11T13:18:25.078Z,10.2
2017-03-11T13:19:27.384Z,10.6
2017-03-11T13:20:29.424Z,11.2
2017-03-11T13:21:31.315Z,11.4
2017-03-11T13:22:33.709Z,11.9
2017-03-11T13:23:35.618Z,11.4
2017-03-11T13:24:37.673Z,11.4
2017-03-11T13:25:39.551Z,11.7
2017-03-11T13:26:41.461Z,11.1
2017-03-11T13:27:43.353Z,11.1
2017-03-11T13:28:45.728Z,11
2017-03-11T13:29:48.127Z,11.1
2017-03-11T13:30:50.072Z,10.8
2017-03-11T13:31:52.024Z,11
2017-03-11T13:32:54.050Z,11.2
2017-03-11T13:33:56.483Z,11.2
2017-03-11T13:34:58.385Z,11.4
2017-03-11T13:36:00.825Z,11.1
2017-03-11T13:37:02.712Z,11.5
2017-03-11T13:38:04.590Z,11.4
2017-03-11T13:39:06.854Z,11.1
2017-03-11T13:40:08.767Z,11.3
2017-03-11T13:41:10.688Z,10.5
2017-03-11T13:42:12.712Z,10.2
2017-03-11T13:43:15.041Z,10.8
2017-03-11T13:44:17.380Z,11.4
2017-03-11T13:45:19.481Z,11.3
2017-03-11T13:46:21.390Z,11.5
2017-03-11T13:47:23.307Z,11.2
2017-03-11T13:48:25.198Z,11
2017-03-11T13:49:27.141Z,11.3
2017-03-11T13:50:29.075Z,11.1
2017-03-11T13:51:31.700Z,11.3
2017-03-11T13:52:33.722Z,11.4
2017-03-11T13:53:36.272Z,11.3
2017-03-11T13:54:38.173Z,11.6
2017-03-11T13:55:40.148Z,11.2
2017-03-11T13:56:42.262Z,11.4
2017-03-11T13:57:44.439Z,11.5
2017-03-11T13:58:46.533Z,11.6
2017-03-11T13:59:48.439Z,12
2017-03-11T14:00:50.921Z,11.3
2017-03-11T14:01:53.256Z,11.3
2017-03-11T14:02:55.156Z,11.2
2017-03-11T14:03:57.098Z,11.4
2017-03-11T14:04:59.125Z,11.5
2017-03-11T14:06:01.108Z,11.6
2017-03-11T14:07:03.033Z,11.5
2017-03-11T14:08:05.361Z,11.5
2017-03-11T14:09:07.424Z,11.5
2017-03-11T14:10:09.309Z,11.5
2017-03-11T14:11:11.213Z,11.4
2017-03-11T14:12:13.538Z,11.5
2017-03-11T14:13:15.533Z,11
2017-03-11T14:14:17.427Z,11.2
2017-03-11T14:15:19.305Z,11.8
2017-03-11T14:16:21.220Z,12
2017-03-11T14:17:23.238Z,11.9
2017-03-11T14:18:25.127Z,11.9